Time;durP1;ratioP1;P1;durP2;ratioP2;P2;SDS_P1;SDS_P2;PMS_P1;PMS_P2;Temp;Humidity;BMP_temperature;BMP_pressure;BME280_temperature;BME280_humidity;BME280_pressure;Samples;Min_cycle;Max_cycle;Signal;HPM_P1;HPM_P2
2023/08/05 00:00:39;;;;;;;2.75;2.55;;;;;;;14.74;100.00;101729.09;5035880;28;20033;-76
2023/08/05 00:03:05;;;;;;;2.50;2.33;;;;;;;14.74;100.00;101734.38;5036307;28;20081;-76
2023/08/05 00:05:30;;;;;;;3.00;2.65;;;;;;;14.74;100.00;101728.25;5035963;28;20029;-76
2023/08/05 00:07:55;;;;;;;2.78;2.58;;;;;;;14.72;100.00;101730.94;5036227;28;20120;-76
2023/08/05 00:10:21;;;;;;;4.25;2.25;;;;;;;14.73;100.00;101732.63;5035204;28;20049;-76
2023/08/05 00:12:46;;;;;;;2.53;2.33;;;;;;;14.73;100.00;101732.63;5036044;28;20037;-76
2023/08/05 00:15:12;;;;;;;3.70;2.53;;;;;;;14.74;100.00;101725.59;5036193;28;20333;-76
2023/08/05 00:17:38;;;;;;;2.33;2.03;;;;;;;14.74;100.00;101725.59;5035521;28;20057;-76
2023/08/05 00:20:04;;;;;;;2.38;2.28;;;;;;;14.74;100.00;101715.06;5035895;28;20029;-76
2023/08/05 00:22:30;;;;;;;2.47;2.28;;;;;;;14.74;100.00;101717.69;5035456;28;20037;-76
2023/08/05 00:24:55;;;;;;;2.45;2.20;;;;;;;14.74;100.00;101715.91;5036384;28;20037;-76
2023/08/05 00:27:20;;;;;;;3.72;2.80;;;;;;;14.75;100.00;101711.47;5035641;28;20075;-76
2023/08/05 00:29:46;;;;;;;2.58;2.38;;;;;;;14.76;100.00;101715.84;5035460;28;20037;-76
2023/08/05 00:32:12;;;;;;;2.72;2.53;;;;;;;14.77;100.00;101712.25;5035740;28;20025;-76
2023/08/05 00:34:37;;;;;;;2.70;2.47;;;;;;;14.77;100.00;101707.88;5035218;28;20034;-76
2023/08/05 00:37:03;;;;;;;2.88;2.67;;;;;;;14.77;100.00;101701.72;5035916;28;20041;-76
2023/08/05 00:39:28;;;;;;;2.63;2.42;;;;;;;14.77;100.00;101699.97;5035359;28;20352;-76
2023/08/05 00:41:54;;;;;;;2.75;2.47;;;;;;;14.78;100.00;101699.00;5035651;28;20037;-76
2023/08/05 00:44:19;;;;;;;2.58;2.38;;;;;;;14.78;100.00;101693.75;5034966;28;20326;-76
2023/08/05 00:46:45;;;;;;;2.40;2.30;;;;;;;14.78;100.00;101685.00;5035682;28;20044;-76
2023/08/05 00:49:11;;;;;;;2.95;2.75;;;;;;;14.77;100.00;101686.78;5035585;28;20100;-76
2023/08/05 00:51:38;;;;;;;3.25;2.95;;;;;;;14.78;100.00;101688.47;5035012;28;20167;-76
2023/08/05 00:54:04;;;;;;;2.80;2.60;;;;;;;14.79;100.00;101686.72;5035869;28;20378;-76
2023/08/05 00:56:29;;;;;;;2.70;2.50;;;;;;;14.79;100.00;101692.00;5035155;28;20029;-76
2023/08/05 00:58:55;;;;;;;2.83;2.63;;;;;;;14.79;100.00;101697.25;5035152;28;20301;-76
2023/08/05 01:01:20;;;;;;;3.58;2.65;;;;;;;14.79;100.00;101699.91;5035088;28;20328;-76
2023/08/05 01:03:46;;;;;;;2.55;2.40;;;;;;;14.81;100.00;101702.44;5035123;28;20376;-76
2023/08/05 01:06:14;;;;;;;2.80;2.60;;;;;;;14.81;100.00;101702.44;5035397;28;20041;-76
2023/08/05 01:08:41;;;;;;;3.50;2.83;;;;;;;14.82;100.00;101698.88;5034835;28;20427;-76
2023/08/05 01:11:06;;;;;;;2.58;2.38;;;;;;;14.82;100.00;101701.53;5035282;28;20052;-76
2023/08/05 01:13:32;;;;;;;2.85;2.40;;;;;;;14.82;100.00;101704.16;5034485;28;20038;-76
2023/08/05 01:15:58;;;;;;;2.55;2.38;;;;;;;14.83;100.00;101698.81;5035102;28;20061;-76
2023/08/05 01:18:24;;;;;;;3.22;2.78;;;;;;;14.83;100.00;101688.28;5034998;28;20037;-76
2023/08/05 01:20:54;;;;;;;2.80;2.60;;;;;;;14.84;100.00;101689.13;5035004;28;20045;-76
2023/08/05 01:23:35;;;;;;;3.00;2.70;;;;;;;14.85;100.00;101690.84;5034803;28;20103;-76
2023/08/05 01:26:02;;;;;;;2.50;2.33;;;;;;;14.85;100.00;101688.22;5017310;28;20029;-76
2023/08/05 01:28:27;;;;;;;2.60;2.40;;;;;;;14.84;100.00;101679.44;5034835;28;20029;-76
2023/08/05 01:30:55;;;;;;;3.00;2.70;;;;;;;14.85;100.00;101685.56;5034867;28;20083;-76
2023/08/05 01:33:22;;;;;;;2.70;2.50;;;;;;;14.85;100.00;101670.59;5034979;28;20038;-76
2023/08/05 01:35:51;;;;;;;2.80;2.58;;;;;;;14.86;100.00;101674.97;5034991;28;20040;-76
2023/08/05 01:38:17;;;;;;;2.50;2.30;;;;;;;14.86;100.00;101672.31;5034762;28;20060;-76
2023/08/05 01:40:43;;;;;;;2.80;2.60;;;;;;;14.87;100.00;101675.81;5034825;28;20033;-76
2023/08/05 01:43:09;;;;;;;2.20;2.10;;;;;;;14.88;100.00;101682.78;5037847;28;20075;-76
2023/08/05 01:45:34;;;;;;;2.65;2.45;;;;;;;14.89;100.00;101679.22;5038354;28;20120;-76
2023/08/05 01:47:59;;;;;;;2.88;2.42;;;;;;;14.88;100.00;101674.88;5038777;28;20072;-76
2023/08/05 01:50:25;;;;;;;2.72;2.47;;;;;;;14.88;100.00;101670.47;5038637;28;20037;-76
2023/08/05 01:52:51;;;;;;;2.35;2.25;;;;;;;14.90;100.00;101665.13;5038427;28;20068;-76
2023/08/05 01:55:17;;;;;;;2.85;2.65;;;;;;;14.89;100.00;101656.34;5038413;28;20221;-76
2023/08/05 01:57:42;;;;;;;2.28;2.15;;;;;;;14.90;100.00;101660.72;5038420;28;20081;-76
2023/08/05 02:00:08;;;;;;;3.13;2.83;;;;;;;14.91;100.00;101658.91;5038712;28;20106;-76
2023/08/05 02:02:34;;;;;;;2.70;2.58;;;;;;;14.90;100.00;101657.22;5038350;28;20048;-76
2023/08/05 02:04:59;;;;;;;4.20;2.40;;;;;;;14.91;100.00;101656.28;5038576;28;20029;-76
2023/08/05 02:07:24;;;;;;;3.28;2.40;;;;;;;14.91;100.00;101648.38;5038150;28;20156;-76
2023/08/05 02:09:50;;;;;;;2.80;2.60;;;;;;;14.91;100.00;101656.28;5038080;28;20037;-76
2023/08/05 02:12:15;;;;;;;2.70;2.50;;;;;;;14.92;100.00;101650.09;5038313;28;20056;-76
2023/08/05 02:14:40;;;;;;;3.03;2.80;;;;;;;14.92;100.00;101652.72;5037755;28;20279;-76
2023/08/05 02:17:06;;;;;;;2.65;2.45;;;;;;;14.92;100.00;101652.72;5038492;28;20229;-76
2023/08/05 02:19:31;;;;;;;2.83;2.60;;;;;;;14.93;100.00;101654.41;5037657;28;20240;-76
2023/08/05 02:21:57;;;;;;;2.42;2.22;;;;;;;14.92;100.00;101645.66;5038142;28;20326;-76
2023/08/05 02:24:22;;;;;;;3.35;2.70;;;;;;;14.93;100.00;101647.34;5037669;28;20225;-76
2023/08/05 02:26:47;;;;;;;3.42;2.40;;;;;;;14.93;100.00;101636.81;5037765;28;20299;-76
2023/08/05 02:29:13;;;;;;;3.08;2.80;;;;;;;14.94;100.00;101624.50;5038061;28;20041;-76
2023/08/05 02:31:38;;;;;;;4.43;2.70;;;;;;;14.93;100.00;101617.50;5037341;28;20033;-76
2023/08/05 02:34:03;;;;;;;2.83;2.50;;;;;;;14.93;100.00;101613.06;5037937;28;20033;-76
2023/08/05 02:36:29;;;;;;;2.65;2.45;;;;;;;14.93;100.00;101604.31;5022017;28;20382;-76
2023/08/05 02:38:54;;;;;;;2.50;2.30;;;;;;;14.93;100.00;101605.16;5018147;28;20048;-76
2023/08/05 02:41:20;;;;;;;2.90;2.70;;;;;;;14.93;100.00;101602.53;5034626;28;20035;-76
2023/08/05 02:43:45;;;;;;;4.65;3.42;;;;;;;14.93;100.00;101597.25;5037358;28;20037;-76
2023/08/05 02:46:11;;;;;;;3.53;2.85;;;;;;;14.94;100.00;101600.75;5037824;28;20030;-76
2023/08/05 02:48:36;;;;;;;3.38;2.78;;;;;;;14.93;100.00;101591.13;5037176;28;20041;-75
2023/08/05 02:51:01;;;;;;;2.72;2.53;;;;;;;14.93;100.00;101599.88;5037632;28;20044;-75
2023/08/05 02:53:28;;;;;;;3.20;2.95;;;;;;;14.93;100.00;101589.34;5036864;28;20053;-75
2023/08/05 02:55:54;;;;;;;2.67;2.50;;;;;;;14.93;100.00;101588.47;5037468;28;20224;-75
2023/08/05 02:58:19;;;;;;;3.10;2.80;;;;;;;14.91;100.00;101580.63;5036744;28;20026;-75
2023/08/05 03:00:46;;;;;;;2.70;2.50;;;;;;;14.92;100.00;101573.59;5039016;28;20075;-73
2023/08/05 03:03:12;;;;;;;2.70;2.50;;;;;;;14.92;100.00;101574.44;5043898;28;20265;-73
2023/08/05 03:05:38;;;;;;;3.03;2.65;;;;;;;14.91;100.00;101567.44;5043435;28;20224;-73
2023/08/05 03:08:03;;;;;;;2.45;2.35;;;;;;;14.93;100.00;101570.03;5043198;28;20033;-73
2023/08/05 03:10:29;;;;;;;2.80;2.55;;;;;;;14.91;100.00;101564.81;5043036;28;20076;-73
2023/08/05 03:12:54;;;;;;;2.58;2.45;;;;;;;14.91;100.00;101569.25;5043559;28;20029;-73
2023/08/05 03:15:20;;;;;;;3.00;2.67;;;;;;;14.91;100.00;101580.63;5042929;28;20037;-73
2023/08/05 03:17:45;;;;;;;7.05;2.83;;;;;;;14.91;100.00;101571.88;5043585;28;20119;-73
2023/08/05 03:20:25;;;;;;;3.53;2.42;;;;;;;14.90;100.00;101565.75;5043526;28;20037;-73
2023/08/05 03:22:51;;;;;;;3.15;2.95;;;;;;;14.89;100.00;101563.19;5043194;28;20085;-72
2023/08/05 03:25:17;;;;;;;3.10;2.90;;;;;;;14.88;100.00;101557.06;5043471;28;20037;-72
2023/08/05 03:27:42;;;;;;;3.08;2.88;;;;;;;14.89;100.00;101565.81;5043377;28;20040;-72
2023/08/05 03:30:08;;;;;;;3.30;3.00;;;;;;;14.89;100.00;101560.56;5043358;28;20044;-72
2023/08/05 03:32:33;;;;;;;3.13;2.83;;;;;;;14.88;100.00;101554.44;5042851;28;20116;-72
2023/08/05 03:34:59;;;;;;;2.95;2.75;;;;;;;14.88;100.00;101551.81;5042844;28;20037;-72
2023/08/05 03:37:24;;;;;;;3.40;3.10;;;;;;;14.86;100.00;101545.75;5043209;28;20037;-72
2023/08/05 03:39:49;;;;;;;3.03;2.83;;;;;;;14.88;100.00;101545.66;5043046;28;20021;-72
2023/08/05 03:42:15;;;;;;;3.35;3.10;;;;;;;14.87;100.00;101536.88;5043171;28;20270;-72
2023/08/05 03:44:42;;;;;;;2.85;2.65;;;;;;;14.87;100.00;101526.34;5042492;28;20028;-72
2023/08/05 03:47:08;;;;;;;3.08;2.78;;;;;;;14.87;100.00;101523.69;5042597;28;20060;-72
2023/08/05 03:49:33;;;;;;;3.97;3.17;;;;;;;14.86;100.00;101514.09;5042609;28;20048;-72
2023/08/05 03:51:59;;;;;;;3.17;2.78;;;;;;;14.87;100.00;101517.59;5042843;28;20205;-72
2023/08/05 03:54:24;;;;;;;4.30;2.88;;;;;;;14.86;100.00;101516.75;5041953;28;20253;-72
2023/08/05 03:56:51;;;;;;;5.68;3.10;;;;;;;14.86;100.00;101510.59;5042210;28;20033;-72
2023/08/05 03:59:16;;;;;;;3.00;2.70;;;;;;;14.87;100.00;101512.31;5042444;28;20126;-72
2023/08/05 04:01:41;;;;;;;4.22;3.25;;;;;;;14.86;100.00;101505.31;5042585;28;20248;-72
2023/08/05 04:04:07;;;;;;;3.53;2.83;;;;;;;14.86;100.00;101502.69;5024343;28;20025;-72
2023/08/05 04:06:32;;;;;;;3.45;3.25;;;;;;;14.85;100.00;101498.34;5041706;28;20037;-72
2023/08/05 04:08:58;;;;;;;3.55;3.17;;;;;;;14.84;100.00;101494.84;5042443;28;20021;-72
2023/08/05 04:11:23;;;;;;;4.15;3.75;;;;;;;14.84;100.00;101484.28;5041249;28;20051;-72
2023/08/05 04:13:52;;;;;;;3.33;3.05;;;;;;;14.84;100.00;101486.94;5041759;28;20075;-72
2023/08/05 04:16:18;;;;;;;;;;;;;;;14.84;100.00;101486.06;5042690;28;20351;-72
2023/08/05 04:18:48;;;;;;;3.60;3.30;;;;;;;14.84;100.00;101486.94;5041982;28;19948;-72
2023/08/05 04:21:13;;;;;;;4.00;3.60;;;;;;;14.84;100.00;101488.72;5042256;28;20284;-72
2023/08/05 04:23:41;;;;;;;4.28;3.97;;;;;;;14.83;100.00;101487.03;5041757;28;20379;-72
2023/08/05 04:26:06;;;;;;;4.10;3.78;;;;;;;14.83;100.00;101485.22;5042242;28;20100;-72
2023/08/05 04:28:32;;;;;;;3.95;3.42;;;;;;;14.84;100.00;101483.44;5041526;28;20045;-72
2023/08/05 04:30:57;;;;;;;4.18;3.88;;;;;;;14.83;100.00;101481.75;5041828;28;20051;-72
2023/08/05 04:33:25;;;;;;;4.43;3.88;;;;;;;14.83;100.00;101487.03;5041641;28;20119;-72
2023/08/05 04:35:51;;;;;;;4.80;4.15;;;;;;;14.82;100.00;101477.41;5041650;28;20033;-72
2023/08/05 04:38:16;;;;;;;4.95;4.55;;;;;;;14.83;100.00;101474.69;5041729;28;20033;-72
2023/08/05 04:40:42;;;;;;;4.93;4.53;;;;;;;14.83;100.00;101472.03;5041448;28;20037;-72
2023/08/05 04:43:07;;;;;;;4.80;4.40;;;;;;;14.83;100.00;101473.84;5041739;28;20033;-72
2023/08/05 04:45:34;;;;;;;4.82;4.38;;;;;;;14.83;100.00;101465.94;5041345;28;20047;-72
2023/08/05 04:47:59;;;;;;;4.35;4.03;;;;;;;14.83;100.00;101463.28;5041867;28;20088;-72
2023/08/05 04:50:25;;;;;;;4.88;4.47;;;;;;;14.84;100.00;101459.72;5041489;28;20037;-72
2023/08/05 04:52:50;;;;;;;5.03;4.18;;;;;;;14.82;100.00;101465.06;5041441;28;20048;-72
2023/08/05 04:55:16;;;;;;;4.18;3.50;;;;;;;14.82;100.00;101466.84;5041518;28;20079;-72
2023/08/05 04:57:42;;;;;;;3.75;3.50;;;;;;;14.83;100.00;101463.28;5041610;28;20037;-72
2023/08/05 05:00:08;;;;;;;3.55;3.25;;;;;;;14.84;100.00;101454.44;5040857;28;20022;-72
2023/08/05 05:02:33;;;;;;;6.68;3.25;;;;;;;14.84;100.00;101457.91;5041106;28;20079;-72
2023/08/05 05:04:59;;;;;;;6.25;3.60;;;;;;;14.84;100.00;101454.44;5041395;28;20216;-72
2023/08/05 05:07:24;;;;;;;3.40;3.20;;;;;;;14.84;100.00;101454.44;5041298;28;20029;-72
2023/08/05 05:09:49;;;;;;;3.70;3.40;;;;;;;14.84;100.00;101443.88;5041244;28;20092;-72
2023/08/05 05:12:15;;;;;;;4.03;3.15;;;;;;;14.84;100.00;101452.66;5041095;28;20053;-72
2023/08/05 05:14:44;;;;;;;5.32;3.28;;;;;;;14.83;100.00;101444.84;5040858;28;20037;-72
2023/08/05 05:17:10;;;;;;;4.13;3.45;;;;;;;14.84;100.00;101443.88;5046592;28;20096;-72
2023/08/05 05:19:35;;;;;;;3.92;2.90;;;;;;;14.84;100.00;101434.19;5047652;28;20287;-72
2023/08/05 05:22:00;;;;;;;3.70;3.42;;;;;;;14.84;100.00;101428.06;5048638;28;20103;-72
2023/08/05 05:24:28;;;;;;;4.38;3.55;;;;;;;14.84;100.00;101430.69;5048104;28;20056;-72
2023/08/05 05:26:54;;;;;;;3.40;3.17;;;;;;;14.85;100.00;101424.50;5029995;28;20232;-73
2023/08/05 05:29:20;;;;;;;3.30;3.00;;;;;;;14.85;100.00;101435.91;5046837;28;20092;-73
2023/08/05 05:31:46;;;;;;;3.83;3.45;;;;;;;14.86;100.00;101431.47;5047290;28;20539;-73
2023/08/05 05:34:11;;;;;;;3.95;2.60;;;;;;;14.86;100.00;101421.81;5047142;28;20181;-73
2023/08/05 05:36:36;;;;;;;2.83;2.53;;;;;;;14.88;100.00;101419.06;5047476;28;20029;-73
2023/08/05 05:39:02;;;;;;;3.38;3.08;;;;;;;14.88;100.00;101416.44;5047688;28;20037;-72
2023/08/05 05:41:28;;;;;;;3.20;2.97;;;;;;;14.90;100.00;101409.31;5047693;28;20425;-72
2023/08/05 05:43:53;;;;;;;4.68;2.92;;;;;;;14.90;100.00;101414.59;5047716;28;20027;-72
2023/08/05 05:46:19;;;;;;;2.72;2.53;;;;;;;14.90;100.00;101409.31;5047474;28;20124;-72
2023/08/05 05:48:45;;;;;;;2.97;2.63;;;;;;;14.90;100.00;101409.31;5048003;28;20040;-72
2023/08/05 05:51:11;;;;;;;4.50;2.50;;;;;;;14.91;100.00;101411.84;5047593;28;20052;-72
2023/08/05 05:53:36;;;;;;;3.40;2.50;;;;;;;14.92;100.00;101405.66;5047111;28;20064;-72
2023/08/05 05:56:02;;;;;;;2.83;2.63;;;;;;;14.92;100.00;101413.56;5047716;28;20065;-72
2023/08/05 05:58:27;;;;;;;2.78;2.58;;;;;;;14.94;100.00;101424.06;5047681;28;20041;-72
2023/08/05 06:00:54;;;;;;;4.93;2.63;;;;;;;14.94;100.00;101416.16;5029549;28;20033;-72
2023/08/05 06:03:20;;;;;;;2.72;2.53;;;;;;;14.95;100.00;101420.47;5047055;28;20070;-72
2023/08/05 06:05:45;;;;;;;2.53;2.33;;;;;;;14.94;100.00;101414.34;5047619;28;20033;-72
2023/08/05 06:08:10;;;;;;;2.58;2.38;;;;;;;14.95;100.00;101408.16;5047770;28;20029;-72
2023/08/05 06:10:37;;;;;;;3.25;2.95;;;;;;;14.95;100.00;101408.16;5047144;28;20325;-72
2023/08/05 06:13:03;;;;;;;3.45;2.80;;;;;;;14.96;100.00;101409.84;5047547;28;20339;-72
2023/08/05 06:15:30;;;;;;;2.78;2.47;;;;;;;14.97;100.00;101406.28;5047114;28;20036;-72
2023/08/05 06:17:55;;;;;;;4.20;2.80;;;;;;;14.97;100.00;101397.50;5047295;28;20040;-72
2023/08/05 06:20:21;;;;;;;2.90;2.60;;;;;;;14.98;100.00;101392.16;5047309;28;20029;-72
2023/08/05 06:22:46;;;;;;;3.42;3.13;;;;;;;15.00;100.00;101391.25;5047199;28;20037;-72
2023/08/05 06:25:12;;;;;;;3.78;3.47;;;;;;;15.01;100.00;101387.66;5047650;28;20087;-72
2023/08/05 06:27:38;;;;;;;4.57;3.33;;;;;;;15.01;100.00;101395.56;5027800;28;20053;-72
2023/08/05 06:30:04;;;;;;;3.50;3.30;;;;;;;15.02;100.00;101390.22;5044635;28;20092;-72
2023/08/05 06:32:29;;;;;;;4.53;3.83;;;;;;;15.03;100.00;101381.41;5026136;28;20029;-72
2023/08/05 06:34:54;;;;;;;4.20;3.78;;;;;;;15.04;100.00;101392.78;5043902;28;20036;-72
2023/08/05 06:37:21;;;;;;;5.35;4.70;;;;;;;15.05;100.00;101387.44;5044235;28;20037;-72
2023/08/05 06:39:46;;;;;;;8.45;5.47;;;;;;;15.07;100.00;101379.44;5044021;28;20033;-73
2023/08/05 06:42:11;;;;;;;10.23;5.80;;;;;;;15.09;100.00;101380.22;5043964;28;20251;-73
2023/08/05 06:44:37;;;;;;;7.35;6.50;;;;;;;15.10;100.00;101380.16;5043484;28;20022;-72
2023/08/05 06:47:03;;;;;;;6.75;5.97;;;;;;;15.12;100.00;101380.91;5043795;28;20029;-72
2023/08/05 06:49:29;;;;;;;5.82;4.95;;;;;;;15.14;100.00;101372.94;5043838;28;20056;-72
2023/08/05 06:51:54;;;;;;;5.70;5.25;;;;;;;15.15;100.00;101369.34;5043661;28;20041;-72
2023/08/05 06:54:21;;;;;;;6.00;5.13;;;;;;;15.18;100.00;101363.91;5042916;28;20240;-72
2023/08/05 06:56:46;;;;;;;5.65;5.15;;;;;;;15.20;100.00;101374.41;5042939;28;20041;-72
2023/08/05 06:59:12;;;;;;;6.53;5.70;;;;;;;15.21;100.00;101362.91;5043796;28;20035;-72
2023/08/05 07:01:38;;;;;;;6.53;5.53;;;;;;;15.23;100.00;101361.06;5042879;28;20045;-72
2023/08/05 07:04:03;;;;;;;7.68;5.93;;;;;;;15.25;100.00;101352.13;5043771;28;20440;-72
2023/08/05 07:06:29;;;;;;;6.68;5.97;;;;;;;15.26;100.00;101345.91;5042579;28;20040;-72
2023/08/05 07:08:54;;;;;;;6.65;5.47;;;;;;;15.27;100.00;101347.63;5025498;28;20360;-72
2023/08/05 07:11:20;;;;;;;6.35;5.28;;;;;;;15.29;100.00;101342.25;5043234;28;20060;-72
2023/08/05 07:13:46;;;;;;;4.53;4.22;;;;;;;15.30;100.00;101346.63;5042677;28;20093;-72
2023/08/05 07:16:11;;;;;;;7.53;4.55;;;;;;;15.32;100.00;101342.09;5043311;28;20022;-72
2023/08/05 07:18:36;;;;;;;4.85;4.35;;;;;;;15.34;100.00;101342.88;5042661;28;20060;-72
2023/08/05 07:21:02;;;;;;;7.55;4.03;;;;;;;15.33;100.00;101344.66;5043390;28;20028;-72
2023/08/05 07:23:27;;;;;;;4.85;4.18;;;;;;;15.36;100.00;101335.72;5042582;28;20038;-72
2023/08/05 07:25:53;;;;;;;3.65;3.45;;;;;;;15.39;100.00;101326.78;5043214;28;20041;-72
2023/08/05 07:28:18;;;;;;;4.07;3.75;;;;;;;15.39;100.00;101322.38;5024983;28;20025;-72
2023/08/05 07:30:43;;;;;;;5.18;4.72;;;;;;;15.40;100.00;101321.44;5043118;28;20033;-72
2023/08/05 07:33:11;;;;;;;8.95;4.57;;;;;;;15.42;100.00;101329.28;5024924;28;20041;-72
2023/08/05 07:35:37;;;;;;;5.13;4.70;;;;;;;15.43;100.00;101318.63;5042290;28;20097;-72
2023/08/05 07:38:04;;;;;;;4.75;4.35;;;;;;;15.44;100.00;101322.97;5042952;28;20072;-72
2023/08/05 07:40:31;;;;;;;6.30;5.68;;;;;;;15.47;100.00;101328.09;5041558;28;20032;-72
2023/08/05 07:42:59;;;;;;;5.65;5.07;;;;;;;15.49;100.00;101322.72;5043279;28;20101;-73
2023/08/05 07:45:24;;;;;;;6.22;5.05;;;;;;;15.50;100.00;101314.72;5042270;28;20072;-72
2023/08/05 07:47:51;;;;;;;5.95;5.15;;;;;;;15.52;100.00;101312.84;5042694;28;20401;-72
2023/08/05 07:50:21;;;;;;;4.65;4.25;;;;;;;15.55;100.00;101309.19;5042522;28;20097;-72
2023/08/05 07:52:48;;;;;;;8.60;5.13;;;;;;;15.58;100.00;101308.19;5042512;28;20069;-72
2023/08/05 07:55:13;;;;;;;5.15;4.40;;;;;;;15.59;100.00;101296.66;5042497;28;20396;-72
2023/08/05 07:57:40;;;;;;;5.65;4.82;;;;;;;15.60;100.00;101296.59;5024591;28;20022;-72
2023/08/05 08:00:09;;;;;;;8.27;4.45;;;;;;;15.62;100.00;101294.72;5042489;28;20033;-73
2023/08/05 08:02:35;;;;;;;4.78;4.38;;;;;;;15.65;100.00;101294.56;5023597;28;20025;-73
2023/08/05 08:05:04;;;;;;;8.02;4.00;;;;;;;15.68;100.00;101288.25;5042009;28;20040;-72
2023/08/05 08:07:30;;;;;;;4.95;4.30;;;;;;;15.69;100.00;101288.16;5041951;28;20032;-72
2023/08/05 08:09:55;;;;;;;4.93;4.25;;;;;;;15.72;100.00;101279.25;5042046;28;20040;-72
2023/08/05 08:12:21;;;;;;;4.55;4.03;;;;;;;15.74;100.00;101278.25;5041599;28;20052;-72
2023/08/05 08:14:46;;;;;;;4.38;2.78;;;;;;;15.78;100.00;101272.81;5024794;28;20038;-73
2023/08/05 08:17:11;;;;;;;3.72;3.42;;;;;;;15.79;100.00;101266.56;5041979;28;20199;-73
2023/08/05 08:19:37;;;;;;;3.65;3.35;;;;;;;15.81;100.00;101277.88;5041881;28;20026;-72
2023/08/05 08:22:02;;;;;;;3.63;3.38;;;;;;;15.80;100.00;101266.47;5024129;28;20099;-72
2023/08/05 08:24:28;;;;;;;3.80;3.60;;;;;;;15.82;100.00;101267.25;5041535;28;20355;-73
2023/08/05 08:26:53;;;;;;;5.18;3.70;;;;;;;15.84;100.00;101259.25;5041608;28;20205;-73
2023/08/05 08:29:19;;;;;;;7.20;4.38;;;;;;;15.85;100.00;101259.16;5041219;28;20084;-73
2023/08/05 08:31:44;;;;;;;5.93;4.35;;;;;;;15.86;100.00;101257.38;5041942;28;20087;-73
2023/08/05 08:34:09;;;;;;;5.95;5.45;;;;;;;15.88;100.00;101259.00;5041717;28;20034;-73
2023/08/05 08:36:35;;;;;;;5.28;4.88;;;;;;;15.89;100.00;101242.19;5041949;28;20157;-73
2023/08/05 08:39:00;;;;;;;6.40;5.47;;;;;;;15.90;100.00;101238.63;5041686;28;20075;-73
2023/08/05 08:41:26;;;;;;;7.80;5.97;;;;;;;15.92;100.00;101236.75;5041056;28;20411;-72
2023/08/05 08:43:54;;;;;;;5.50;5.00;;;;;;;15.93;100.00;101243.75;5040978;28;20106;-72
2023/08/05 08:46:20;;;;;;;5.75;5.22;;;;;;;15.95;100.00;101232.22;5041425;28;20033;-72
2023/08/05 08:48:48;;;;;;;9.82;5.45;;;;;;;15.96;100.00;101224.22;5041441;28;20140;-72
2023/08/05 08:51:15;;;;;;;7.72;5.30;;;;;;;15.98;100.00;101222.34;5041057;28;20047;-72
2023/08/05 08:53:43;;;;;;;7.97;5.60;;;;;;;16.00;100.00;101219.63;5040917;28;20032;-72
2023/08/05 08:56:09;;;;;;;9.73;5.57;;;;;;;16.02;100.00;101223.00;5041022;28;20132;-72
2023/08/05 08:58:34;;;;;;;4.90;4.50;;;;;;;16.02;100.00;101225.66;5040977;28;20060;-72
2023/08/05 09:01:01;;;;;;;6.70;4.65;;;;;;;16.03;100.00;101220.28;5041182;28;20111;-73
2023/08/05 09:03:29;;;;;;;6.28;5.30;;;;;;;16.04;100.00;101218.50;5040958;28;20056;-73
2023/08/05 09:05:56;;;;;;;5.20;4.80;;;;;;;16.05;100.00;101220.22;5041096;28;20037;-73
2023/08/05 09:08:22;;;;;;;6.72;5.60;;;;;;;16.05;100.00;101213.13;5040785;28;20036;-73
2023/08/05 09:10:47;;;;;;;11.00;5.40;;;;;;;16.07;100.00;101210.41;5040649;28;20045;-73
2023/08/05 09:13:17;;;;;;;8.27;5.57;;;;;;;16.06;100.00;101208.69;5041128;28;20033;-73
2023/08/05 09:15:43;;;;;;;7.85;5.43;;;;;;;16.07;100.00;101197.19;5040611;28;20044;-73
2023/08/05 09:18:09;;;;;;;4.82;4.40;;;;;;;16.06;100.00;101188.41;5040682;28;20067;-73
2023/08/05 09:20:35;;;;;;;4.95;4.45;;;;;;;16.09;100.00;101197.94;5040928;28;20029;-72
2023/08/05 09:23:03;;;;;;;4.90;4.47;;;;;;;16.10;100.00;101186.44;5041415;28;20064;-72
2023/08/05 09:25:31;;;;;;;6.78;4.00;;;;;;;16.10;100.00;101178.53;5040704;28;20033;-73
2023/08/05 09:27:57;;;;;;;4.55;4.00;;;;;;;16.12;100.00;101181.94;5041657;28;20056;-73
2023/08/05 09:30:24;;;;;;;10.25;4.35;;;;;;;16.12;100.00;101174.84;5040689;28;20269;-73
2023/08/05 09:32:52;;;;;;;9.13;4.78;;;;;;;16.12;100.00;101169.56;5040952;28;20095;-73
2023/08/05 09:35:17;;;;;;;5.00;3.97;;;;;;;16.14;100.00;101174.75;5041054;28;20040;-73
2023/08/05 09:37:49;;;;;;;5.50;4.28;;;;;;;16.15;100.00;101173.78;5041023;28;20037;-73
2023/08/05 09:40:18;;;;;;;5.60;4.13;;;;;;;16.16;100.00;101174.66;5040694;28;20227;-73
2023/08/05 09:42:47;;;;;;;6.28;4.07;;;;;;;16.15;100.00;101173.78;5040430;28;20037;-73
2023/08/05 09:45:16;;;;;;;5.22;3.58;;;;;;;16.14;100.00;101172.13;5041295;28;20037;-73
2023/08/05 09:47:42;;;;;;;4.65;3.45;;;;;;;16.16;100.00;101172.88;5040897;28;20040;-72
2023/08/05 09:50:12;;;;;;;5.47;3.25;;;;;;;16.15;100.00;101165.03;5040951;28;20109;-73
2023/08/05 09:52:39;;;;;;;3.25;2.88;;;;;;;16.14;100.00;101152.78;5040177;28;20252;-73
2023/08/05 09:55:11;;;;;;;10.30;3.35;;;;;;;16.14;99.27;101158.06;5041026;28;20033;-73
2023/08/05 09:57:39;;;;;;;2.65;2.45;;;;;;;16.13;98.91;101157.19;5040223;28;20045;-73
2023/08/05 10:00:08;;;;;;;3.58;2.58;;;;;;;16.14;98.75;101150.97;5040689;28;20091;-73
2023/08/05 10:02:40;;;;;;;4.47;2.75;;;;;;;16.14;98.20;101140.41;5039982;28;20041;-73
2023/08/05 10:05:06;;;;;;;2.50;2.30;;;;;;;16.15;98.50;101128.88;5044270;28;20299;-73
2023/08/05 10:07:31;;;;;;;2.75;2.55;;;;;;;16.17;98.53;101137.59;5043171;28;20363;-73
2023/08/05 10:09:58;;;;;;;3.10;2.80;;;;;;;16.18;98.73;101131.34;5044325;28;20044;-72
2023/08/05 10:12:35;;;;;;;2.97;2.40;;;;;;;16.18;98.61;101128.72;5044479;28;20029;-72
2023/08/05 10:15:03;;;;;;;5.22;3.30;;;;;;;16.19;98.41;101134.84;5044479;28;20037;-73
2023/08/05 10:17:28;;;;;;;3.45;3.15;;;;;;;16.19;98.43;101138.34;5044331;28;20026;-73
2023/08/05 10:19:54;;;;;;;5.53;3.60;;;;;;;16.20;98.70;101134.75;5044134;28;20037;-73
2023/08/05 10:22:24;;;;;;;3.70;3.30;;;;;;;16.21;98.56;101132.94;5044578;28;20068;-73
2023/08/05 10:25:00;;;;;;;4.22;3.88;;;;;;;16.21;98.59;101122.38;5044647;28;20047;-73
2023/08/05 10:27:43;;;;;;;4.93;4.50;;;;;;;16.22;98.24;101124.94;5043925;28;20033;-73
2023/08/05 10:30:10;;;;;;;5.72;4.53;;;;;;;16.22;98.22;101122.28;5043947;28;20064;-73
2023/08/05 10:32:48;;;;;;;4.70;4.30;;;;;;;16.22;97.97;101118.81;5043597;28;20041;-73
2023/08/05 10:35:27;;;;;;;4.38;3.67;;;;;;;16.21;97.85;101117.09;5043748;28;20371;-72
2023/08/05 10:38:16;;;;;;;3.80;3.50;;;;;;;16.21;97.78;101117.97;5025718;28;20029;-71
2023/08/05 10:40:42;;;;;;;4.40;4.00;;;;;;;16.22;97.47;101116.16;5034474;28;20062;-72
2023/08/05 10:43:09;;;;;;;3.55;3.25;;;;;;;16.21;97.42;101106.53;5043710;28;20025;-72
2023/08/05 10:45:35;;;;;;;6.65;3.85;;;;;;;16.20;97.14;101110.97;5025502;28;20215;-72
2023/08/05 10:48:06;;;;;;;4.30;3.92;;;;;;;16.19;96.85;101117.22;5043734;28;20052;-72
2023/08/05 10:50:36;;;;;;;3.60;3.30;;;;;;;16.18;96.51;101122.59;5043581;28;20044;-72
2023/08/05 10:53:09;;;;;;;4.43;4.03;;;;;;;16.16;95.54;101130.59;5043966;28;20085;-72
2023/08/05 10:55:45;;;;;;;4.72;3.50;;;;;;;16.15;95.74;101126.25;5043744;28;20033;-72
2023/08/05 10:58:11;;;;;;;7.78;3.70;;;;;;;16.13;95.19;101128.13;5043914;28;20047;-72
2023/08/05 11:00:39;;;;;;;7.18;3.55;;;;;;;16.11;94.96;101116.81;5043403;28;20041;-72
2023/08/05 11:03:25;;;;;;;6.38;3.63;;;;;;;16.09;95.66;101119.53;5043899;28;20036;-72
2023/08/05 11:05:53;;;;;;;4.00;3.60;;;;;;;16.08;96.11;101112.56;5043916;28;20069;-72
2023/08/05 11:08:22;;;;;;;4.22;3.70;;;;;;;16.05;96.22;101104.81;5043991;28;20045;-72
2023/08/05 11:10:51;;;;;;;7.25;4.22;;;;;;;16.05;96.98;101101.31;5044056;28;20057;-72
2023/08/05 11:13:16;;;;;;;9.10;4.38;;;;;;;16.03;96.91;101098.78;5042955;28;20090;-72
2023/08/05 11:15:59;;;;;;;4.15;3.50;;;;;;;16.02;97.34;101093.56;5043078;28;20262;-72